createdAt,value
2018-10-02T00:03:45.084Z,1012
2018-10-02T00:09:10.311Z,1012
2018-10-02T00:14:40.187Z,1012
2018-10-02T00:20:09.474Z,1012
2018-10-02T00:25:40.944Z,1012
2018-10-02T00:31:08.137Z,1012
2018-10-02T00:36:37.199Z,1012
2018-10-02T00:42:05.775Z,1012
2018-10-02T00:47:34.983Z,1012
2018-10-02T00:53:08.832Z,1012
2018-10-02T00:58:33.368Z,1012
2018-10-02T01:04:08.200Z,1011
2018-10-02T01:09:32.030Z,1011
2018-10-02T01:15:00.553Z,1011
2018-10-02T01:20:29.314Z,1011
2018-10-02T01:25:58.065Z,1011
2018-10-02T01:31:32.224Z,1011
2018-10-02T01:42:25.608Z,1011
2018-10-02T01:47:55.064Z,1011
2018-10-02T01:53:24.175Z,1011
2018-10-02T01:58:54.396Z,1011
2018-10-02T02:04:22.311Z,1011
2018-10-02T02:09:52.061Z,1011
2018-10-02T02:15:21.487Z,1011
2018-10-02T02:20:49.977Z,1010
2018-10-02T02:26:18.220Z,1010
2018-10-02T02:31:52.957Z,1010
2018-10-02T02:37:16.720Z,1010
2018-10-02T02:42:46.665Z,1010
2018-10-02T02:48:15.162Z,1010
2018-10-02T02:59:13.585Z,1010
2018-10-02T03:04:42.527Z,1010
2018-10-02T03:10:12.603Z,1010
2018-10-02T03:15:40.687Z,1010
2018-10-02T03:21:10.750Z,1010
2018-10-02T03:26:40.109Z,1010
2018-10-02T03:32:09.815Z,1010
2018-10-02T03:37:38.738Z,1010
2018-10-02T03:43:08.218Z,1010
2018-10-02T03:48:36.918Z,1010
2018-10-02T03:54:05.783Z,1010
2018-10-02T03:59:34.232Z,1010
2018-10-02T04:05:08.169Z,1010
2018-10-02T04:10:32.026Z,1010
2018-10-02T04:16:01.276Z,1010
2018-10-02T04:21:30.094Z,1009
2018-10-02T04:27:04.659Z,1009
2018-10-02T04:32:28.414Z,1009
2018-10-02T04:37:58.224Z,1009
2018-10-02T04:43:26.968Z,1009
2018-10-02T04:48:56.551Z,1009
2018-10-02T04:54:24.937Z,1009
2018-10-02T04:59:59.630Z,1009
2018-10-02T05:05:24.314Z,1009
2018-10-02T05:10:54.263Z,1009
2018-10-02T05:16:23.964Z,1009
2018-10-02T05:21:52.477Z,1009
2018-10-02T05:27:22.273Z,1008
2018-10-02T05:32:51.834Z,1008
2018-10-02T05:38:21.183Z,1008
2018-10-02T05:43:56.996Z,1008
2018-10-02T05:49:24.515Z,1008
2018-10-02T05:54:49.123Z,1008
2018-10-02T06:00:18.721Z,1008
2018-10-02T06:11:23.371Z,1008
2018-10-02T06:16:46.679Z,1008
2018-10-02T06:22:16.543Z,1008
2018-10-02T06:22:17.022Z,1008
2018-10-02T06:27:44.191Z,1007
2018-10-02T06:33:12.684Z,1007
2018-10-02T06:38:42.318Z,1007
2018-10-02T06:44:10.141Z,1007
2018-10-02T06:49:39.828Z,1007
2018-10-02T06:55:08.224Z,1007
2018-10-02T07:00:37.932Z,1007
2018-10-02T07:06:06.452Z,1007
2018-10-02T07:11:35.520Z,1007
2018-10-02T07:17:09.665Z,1007
2018-10-02T07:22:33.210Z,1007
2018-10-02T07:28:02.186Z,1006
2018-10-02T07:33:31.457Z,1006
2018-10-02T07:39:05.273Z,1006
2018-10-02T07:44:35.038Z,1006
2018-10-02T07:49:58.492Z,1006
2018-10-02T07:55:27.131Z,1006
2018-10-02T08:00:57.181Z,1006
2018-10-02T08:06:25.356Z,1006
2018-10-02T08:11:54.676Z,1006
2018-10-02T08:17:22.402Z,1005
2018-10-02T08:22:51.190Z,1005
2018-10-02T08:28:20.136Z,1005
2018-10-02T08:33:48.206Z,1005
2018-10-02T08:39:18.172Z,1005
2018-10-02T08:44:47.664Z,1005
2018-10-02T08:50:17.477Z,1005
2018-10-02T08:55:46.755Z,1005
2018-10-02T09:01:16.196Z,1004
2018-10-02T10:07:02.102Z,1003
2018-10-02T10:12:31.460Z,1003
2018-10-02T10:18:01.501Z,1003
2018-10-02T10:23:29.828Z,1003
2018-10-02T10:28:59.559Z,1003
2018-10-02T10:34:29.572Z,1003
2018-10-02T10:39:59.342Z,1003
2018-10-02T10:45:27.821Z,1003
2018-10-02T10:50:59.124Z,1003
2018-10-02T10:56:26.391Z,1003
2018-10-02T10:56:27.317Z,1003
2018-10-02T11:01:55.237Z,1003
2018-10-02T11:07:25.002Z,1003
2018-10-02T11:12:53.336Z,1003
2018-10-02T11:18:22.030Z,1002
2018-10-02T11:23:50.915Z,1002
2018-10-02T11:29:25.285Z,1002
2018-10-02T11:34:54.245Z,1002
2018-10-02T11:40:24.420Z,1002
2018-10-02T11:45:47.497Z,1003
2018-10-02T14:46:56.119Z,1003
2018-10-02T14:52:26.173Z,1003
2018-10-02T14:57:56.490Z,1004
2018-10-02T15:03:25.337Z,1004
2018-10-02T15:08:54.474Z,1004
2018-10-02T15:14:24.547Z,1004
2018-10-02T15:19:53.655Z,1004
2018-10-02T15:25:23.864Z,1004
2018-10-02T15:30:53.877Z,1004
2018-10-02T15:36:27.999Z,1004
2018-10-02T15:41:52.096Z,1004
2018-10-02T15:47:27.247Z,1004
2018-10-02T15:52:52.891Z,1004
2018-10-02T15:58:21.733Z,1004
2018-10-02T16:03:51.906Z,1004
2018-10-02T16:09:20.746Z,1004
2018-10-02T16:14:51.123Z,1004
2018-10-02T16:20:25.291Z,1004
2018-10-02T16:25:50.141Z,1004
2018-10-02T16:31:19.197Z,1004
2018-10-02T16:36:48.313Z,1004
2018-10-02T16:42:25.678Z,1004
2018-10-02T16:47:47.507Z,1004
2018-10-02T16:53:17.598Z,1004
2018-10-02T16:58:46.967Z,1004
2018-10-02T17:04:16.055Z,1004
2018-10-02T17:09:49.849Z,1004
2018-10-02T17:15:15.125Z,1005
2018-10-02T17:20:44.000Z,1005
2018-10-02T17:26:14.053Z,1005
2018-10-02T17:31:43.123Z,1004
2018-10-02T17:37:13.284Z,1004
2018-10-02T17:42:42.517Z,1004
2018-10-02T17:48:11.587Z,1004
2018-10-02T17:53:40.413Z,1004
2018-10-02T17:59:09.595Z,1004
2018-10-02T18:04:39.509Z,1004
2018-10-02T18:10:08.345Z,1004
2018-10-02T18:15:38.514Z,1004
2018-10-02T18:21:08.403Z,1004
2018-10-02T18:26:38.126Z,1004
2018-10-02T18:32:06.669Z,1004
2018-10-02T18:37:35.415Z,1004
2018-10-02T18:43:04.781Z,1004
2018-10-02T18:48:33.331Z,1004
2018-10-02T18:54:03.331Z,1004
2018-10-02T18:59:33.258Z,1005
2018-10-02T19:05:02.234Z,1005
2018-10-02T19:10:31.204Z,1005
2018-10-02T19:16:00.113Z,1005
2018-10-02T19:21:34.647Z,1005
2018-10-02T19:26:58.070Z,1005
2018-10-02T19:32:27.948Z,1005
2018-10-02T19:37:56.898Z,1005
2018-10-02T19:43:26.743Z,1005
2018-10-02T19:49:01.784Z,1005
2018-10-02T19:54:26.582Z,1005
2018-10-02T19:59:55.724Z,1005
2018-10-02T20:05:25.338Z,1005
2018-10-02T20:10:54.216Z,1005
2018-10-02T20:16:23.441Z,1005
2018-10-02T20:21:58.415Z,1005
2018-10-02T20:27:27.009Z,1005
2018-10-02T20:32:50.818Z,1005
2018-10-02T20:38:25.894Z,1005
2018-10-02T20:43:49.789Z,1005
2018-10-02T20:49:19.454Z,1005
2018-10-02T20:54:48.365Z,1005
2018-10-02T21:00:17.298Z,1005
2018-10-02T21:05:46.869Z,1005
2018-10-02T21:11:16.985Z,1005
2018-10-02T21:16:50.841Z,1005
2018-10-02T21:22:15.361Z,1005
2018-10-02T21:27:44.200Z,1005
2018-10-02T21:33:14.263Z,1005
2018-10-02T21:38:42.826Z,1005
2018-10-02T21:44:11.630Z,1005
2018-10-02T21:49:41.432Z,1005
2018-10-02T21:55:11.234Z,1005
2018-10-02T22:00:40.473Z,1005
2018-10-02T22:06:09.950Z,1005
2018-10-02T22:11:44.894Z,1005
2018-10-02T22:17:08.403Z,1005
2018-10-02T22:22:38.260Z,1005
2018-10-02T22:28:07.969Z,1005
2018-10-02T22:33:37.867Z,1005
2018-10-02T22:39:06.519Z,1005
2018-10-02T22:44:35.299Z,1005
2018-10-02T22:50:05.321Z,1004
2018-10-02T22:55:33.863Z,1004
2018-10-02T23:01:08.614Z,1005
2018-10-02T23:06:37.335Z,1004
2018-10-02T23:12:01.340Z,1004
2018-10-02T23:17:31.083Z,1004
2018-10-02T23:23:04.600Z,1004
2018-10-02T23:28:29.316Z,1004
2018-10-02T23:33:58.326Z,1005
2018-10-02T23:39:28.216Z,1005
2018-10-02T23:44:57.558Z,1005
2018-10-02T23:50:27.639Z,1005
2018-10-02T23:55:56.256Z,1005
